createdAt,value
2018-07-28T00:00:03.028Z,79.91
2018-07-28T00:01:13.107Z,80.1
2018-07-28T00:02:22.924Z,80.06
2018-07-28T00:03:33.024Z,80.1
2018-07-28T00:04:42.831Z,80.1
2018-07-28T00:05:52.654Z,79.87
2018-07-28T00:07:02.475Z,80.45
2018-07-28T00:08:12.557Z,79.77
2018-07-28T00:09:22.628Z,80.35
2018-07-28T00:10:32.675Z,80.26
2018-07-28T00:11:42.796Z,80.26
2018-07-28T00:12:52.873Z,79.87
2018-07-28T00:14:02.958Z,80.26
2018-07-28T00:15:13.046Z,80.45
2018-07-28T00:16:22.862Z,80.45
2018-07-28T00:17:32.937Z,80.45
2018-07-28T00:18:43.092Z,80.35
2018-07-28T00:19:53.148Z,80.45
2018-07-28T00:21:03.236Z,80.45
2018-07-28T00:22:13.314Z,80.35
2018-07-28T00:23:23.193Z,80.26
2018-07-28T00:24:33.282Z,79.97
2018-07-28T00:25:43.342Z,80.16
2018-07-28T00:26:53.425Z,80.26
2018-07-28T00:28:03.245Z,80.16
2018-07-28T00:29:13.069Z,79.77
2018-07-28T00:30:22.882Z,80.26
2018-07-28T00:31:32.954Z,80.26
2018-07-28T00:32:43.021Z,79.68
2018-07-28T00:33:53.108Z,80.16
2018-07-28T00:35:03.244Z,80.06
2018-07-28T00:36:13.328Z,80.26
2018-07-28T00:37:23.459Z,80.06
2018-07-28T00:38:33.525Z,80.26
2018-07-28T00:39:43.339Z,80.16
2018-07-28T00:40:53.144Z,80.06
2018-07-28T00:42:02.963Z,79.97
2018-07-28T00:43:13.061Z,80.16
2018-07-28T00:44:23.121Z,80.16
2018-07-28T00:45:33.201Z,80.26
2018-07-28T00:46:43.267Z,80.45
2018-07-28T00:47:53.343Z,80.45
2018-07-28T00:49:03.431Z,80.35
2018-07-28T00:50:13.569Z,79.97
2018-07-28T00:51:23.651Z,80.16
2018-07-28T00:52:33.731Z,80.16
2018-07-28T00:53:43.808Z,79.87
2018-07-28T00:54:53.937Z,80.26
2018-07-28T00:56:03.745Z,79.77
2018-07-28T00:57:13.577Z,79.97
2018-07-28T00:58:23.425Z,80.26
2018-07-28T00:59:33.503Z,80.26
2018-07-28T01:00:43.580Z,80.06
2018-07-28T01:01:53.665Z,80.16
2018-07-28T01:03:03.733Z,80.16
2018-07-28T01:04:13.814Z,80.45
2018-07-28T01:05:23.623Z,80.26
2018-07-28T01:06:33.698Z,80.35
2018-07-28T01:07:43.514Z,80.26
2018-07-28T01:08:53.301Z,80.35
2018-07-28T01:10:03.420Z,80.26
2018-07-28T01:11:13.494Z,80.26
2018-07-28T01:12:23.567Z,80.26
2018-07-28T01:13:33.369Z,80.35
2018-07-28T01:14:43.448Z,80.35
2018-07-28T01:15:53.510Z,80.35
2018-07-28T01:17:03.604Z,80.54
2018-07-28T01:18:13.405Z,80.35
2018-07-28T01:19:23.214Z,80.35
2018-07-28T01:20:33.280Z,80.06
2018-07-28T01:21:43.364Z,80.06
2018-07-28T01:22:52.657Z,80.06
2018-07-28T01:24:02.744Z,80.06
2018-07-28T01:25:12.612Z,79.97
2018-07-28T01:26:22.698Z,80.06
2018-07-28T01:27:32.814Z,80.16
2018-07-28T01:28:42.627Z,80.16
2018-07-28T01:29:52.439Z,80.06
2018-07-28T01:31:02.246Z,79.97
2018-07-28T01:32:12.053Z,80.16
2018-07-28T01:33:22.178Z,80.06
2018-07-28T01:34:32.242Z,80.06
2018-07-28T01:35:42.305Z,80.16
2018-07-28T01:36:52.139Z,79.97
2018-07-28T01:38:02.214Z,80.26
2018-07-28T01:39:12.045Z,80.16
2018-07-28T01:40:21.857Z,80.16
2018-07-28T01:41:31.938Z,80.26
2018-07-28T01:42:41.751Z,80.26
2018-07-28T01:43:51.837Z,80.26
2018-07-28T01:45:01.921Z,80.35
2018-07-28T01:46:11.736Z,80.35
2018-07-28T01:47:21.807Z,80.26
2018-07-28T01:48:31.616Z,80.26
2018-07-28T01:49:41.672Z,80.35
2018-07-28T01:50:51.759Z,80.35
2018-07-28T01:52:01.840Z,80.16
2018-07-28T01:53:11.916Z,80.35
2018-07-28T01:54:21.734Z,80.35
2018-07-28T01:55:31.801Z,80.35
2018-07-28T01:56:41.918Z,80.35
2018-07-28T01:57:52.003Z,80.06
2018-07-28T01:59:01.560Z,80.06
2018-07-28T02:00:11.366Z,80.06
2018-07-28T02:01:21.429Z,79.97
2018-07-28T02:02:31.524Z,80.06
2018-07-28T02:03:41.073Z,80.06
2018-07-28T02:04:50.869Z,80.22
2018-07-28T02:06:00.686Z,80.06
2018-07-28T02:07:10.789Z,80.54
2018-07-28T02:08:20.845Z,80.31
2018-07-28T02:09:30.910Z,80.45
2018-07-28T02:10:40.720Z,80.02
2018-07-28T02:11:50.516Z,80.26
2018-07-28T02:13:00.588Z,80.45
2018-07-28T02:14:10.655Z,80.41
2018-07-28T02:15:20.725Z,80.16
2018-07-28T02:16:30.807Z,80.31
2018-07-28T02:17:40.620Z,80.31
2018-07-28T02:18:50.438Z,80.02
2018-07-28T02:20:00.512Z,80.31
2018-07-28T02:21:10.312Z,80.02
2018-07-28T02:22:20.110Z,79.93
2018-07-28T02:23:29.935Z,80.22
2018-07-28T02:24:40.024Z,79.93
2018-07-28T02:25:49.835Z,80.22
2018-07-28T02:26:59.657Z,80.26
2018-07-28T02:28:09.723Z,80.02
2018-07-28T02:29:19.778Z,80.12
2018-07-28T02:30:29.858Z,80.02
2018-07-28T02:31:39.668Z,79.93
2018-07-28T02:32:49.753Z,80.16
2018-07-28T02:33:59.840Z,80.06
2018-07-28T02:35:09.933Z,79.97
2018-07-28T02:36:19.756Z,80.16
2018-07-28T02:37:29.597Z,80.26
2018-07-28T02:38:39.674Z,80.16
2018-07-28T02:39:49.748Z,80.06
2018-07-28T02:40:59.844Z,80.26
2018-07-28T02:42:09.670Z,80.26
2018-07-28T02:43:19.489Z,80.26
2018-07-28T02:44:29.297Z,80.06
2018-07-28T02:45:39.114Z,80.16
2018-07-28T02:46:49.227Z,80.06
2018-07-28T02:47:59.045Z,80.22
2018-07-28T02:49:09.190Z,80.12
2018-07-28T02:50:19.014Z,79.93
2018-07-28T02:51:28.818Z,80.12
2018-07-28T02:52:38.884Z,80.12
2018-07-28T02:53:48.960Z,80.12
2018-07-28T02:54:59.068Z,79.83
2018-07-28T02:56:09.144Z,79.93
2018-07-28T02:57:19.222Z,79.83
2018-07-28T02:58:29.031Z,79.83
2018-07-28T02:59:39.121Z,80.12
2018-07-28T03:00:48.926Z,80.02
2018-07-28T03:01:59.013Z,80.22
2018-07-28T03:35:06.101Z,74.76
2018-07-28T03:36:16.176Z,75.24
2018-07-28T03:37:26.241Z,76.11
2018-07-28T03:38:36.326Z,76.78
2018-07-28T03:39:46.380Z,77.26
2018-07-28T03:40:56.466Z,77.94
2018-07-28T03:42:06.550Z,78.23
2018-07-28T03:43:16.621Z,78.65
2018-07-28T03:44:26.689Z,78.36
2018-07-28T03:45:36.749Z,79.03
2018-07-28T03:46:46.866Z,78.98
2018-07-28T03:47:56.674Z,78.98
2018-07-28T03:49:06.770Z,79.27
2018-07-28T03:50:16.680Z,79.21
2018-07-28T03:51:26.773Z,79.11
2018-07-28T03:52:36.598Z,79.11
2018-07-28T03:53:46.136Z,79.41
2018-07-28T03:54:55.932Z,79.25
2018-07-28T03:56:06.005Z,79.35
2018-07-28T03:57:16.092Z,79.25
2018-07-28T03:58:25.630Z,79.29
2018-07-28T03:59:35.713Z,79.58
2018-07-28T04:00:45.787Z,79.68
2018-07-28T04:01:55.597Z,79.39
2018-07-28T04:03:05.693Z,79.39
2018-07-28T04:04:15.905Z,79.43
2018-07-28T04:05:26.118Z,79.43
2018-07-28T04:06:36.184Z,79.33
2018-07-28T04:07:46.256Z,79.62
2018-07-28T04:08:56.328Z,79.52
2018-07-28T04:10:06.396Z,79.24
2018-07-28T04:11:16.476Z,79.08
2018-07-28T04:12:26.543Z,79.04
2018-07-28T04:13:36.364Z,79.08
2018-07-28T04:14:45.908Z,79.27
2018-07-28T04:15:55.715Z,79.41
2018-07-28T04:17:05.797Z,79.41
2018-07-28T04:18:15.334Z,79.5
2018-07-28T04:19:25.423Z,79.8
2018-07-28T04:20:35.251Z,78.54
2018-07-28T04:21:45.323Z,78.92
2018-07-28T04:22:55.419Z,78.77
2018-07-28T04:24:05.231Z,78.87
2018-07-28T04:25:15.372Z,78.87
2018-07-28T04:26:25.462Z,78.96
2018-07-28T04:27:35.530Z,78.33
2018-07-28T04:28:45.602Z,77.59
2018-07-28T04:29:55.679Z,77.14
2018-07-28T04:31:05.764Z,76.41
2018-07-28T04:32:15.842Z,76.31
2018-07-28T04:33:25.942Z,75.96
2018-07-28T04:34:36.020Z,76.19
2018-07-28T04:35:45.830Z,75.03
2018-07-28T04:36:55.657Z,75.16
2018-07-28T04:38:05.851Z,74.81
2018-07-28T04:39:15.933Z,73.88
2018-07-28T04:40:26.108Z,73.95
2018-07-28T04:41:36.196Z,72.92
2018-07-28T04:42:46.282Z,71.92
2018-07-28T04:43:56.411Z,71.41
2018-07-28T04:45:06.743Z,71.73
2018-07-28T04:46:16.854Z,72.12
2018-07-28T04:47:26.941Z,73.29
2018-07-28T04:48:37.013Z,74.49
2018-07-28T04:49:47.092Z,76.3
2018-07-28T04:50:56.913Z,76.61
2018-07-28T04:52:06.991Z,76.71
2018-07-28T04:53:17.074Z,76.71
2018-07-28T04:54:26.998Z,77.2
2018-07-28T04:55:37.092Z,77
2018-07-28T04:56:47.167Z,76.71
2018-07-28T04:57:57.254Z,76.9
2018-07-28T04:59:07.076Z,76.81
2018-07-28T05:00:17.238Z,77.48
2018-07-28T05:01:27.056Z,78.03
2018-07-28T05:02:37.122Z,78.13
2018-07-28T05:03:47.206Z,78.67
2018-07-28T05:04:57.310Z,78.44
2018-07-28T05:06:08.437Z,79.02
2018-07-28T05:07:18.717Z,79.08
2018-07-28T05:08:29.385Z,78.99
2018-07-28T05:09:39.203Z,79.28
2018-07-28T05:10:49.281Z,79.33
2018-07-28T05:11:59.220Z,79.04
2018-07-28T05:13:09.071Z,78.75
2018-07-28T05:14:18.888Z,78.36
2018-07-28T05:15:28.952Z,78.56
2018-07-28T05:16:39.025Z,78.69
2018-07-28T05:17:49.099Z,78.31
2018-07-28T05:18:59.175Z,77.82
2018-07-28T05:20:08.715Z,77.18
2018-07-28T05:21:18.793Z,77.18
2018-07-28T05:22:28.622Z,76.98
2018-07-28T05:23:38.775Z,76.64
2018-07-28T05:24:48.786Z,76.64
2018-07-28T05:25:58.621Z,76.77
2018-07-28T05:27:08.443Z,76.44
2018-07-28T05:28:18.515Z,77.37
2018-07-28T05:29:28.407Z,77.86
2018-07-28T05:30:38.609Z,78.05
2018-07-28T05:31:48.446Z,77.95
2018-07-28T05:32:58.514Z,78.05
2018-07-28T05:34:08.586Z,77.92
2018-07-28T05:35:18.676Z,77.67
2018-07-28T05:36:28.482Z,77.08
2018-07-28T05:37:38.300Z,77.18
2018-07-28T05:38:48.126Z,77.37
2018-07-28T05:39:58.320Z,76.89
2018-07-28T05:41:08.424Z,77.18
2018-07-28T05:42:18.515Z,76.64
2018-07-28T05:43:28.350Z,76.09
2018-07-28T05:44:38.457Z,75.21
2018-07-28T05:45:48.547Z,74.9
2018-07-28T05:46:58.120Z,75.19
2018-07-28T05:48:08.199Z,74.51
2018-07-28T05:49:18.287Z,74.35
2018-07-28T05:50:28.373Z,74.78
2018-07-28T05:51:38.481Z,75.23
2018-07-28T05:52:48.556Z,75.81
2018-07-28T05:53:58.379Z,76.45
2018-07-28T05:55:08.450Z,76.71
2018-07-28T05:56:18.525Z,76.51
2018-07-28T05:57:28.589Z,76.61
2018-07-28T05:58:38.667Z,76.81
2018-07-28T05:59:48.748Z,76.71
2018-07-28T06:00:58.832Z,76.71
2018-07-28T06:02:09.066Z,76.71
2018-07-28T06:03:19.525Z,76.45
2018-07-28T06:04:29.615Z,75.71
2018-07-28T06:05:39.704Z,75.23
2018-07-28T06:06:49.779Z,74.78
2018-07-28T06:07:59.862Z,74.13
2018-07-28T06:09:09.964Z,74.33
2018-07-28T06:10:20.107Z,74.23
2018-07-28T06:11:30.180Z,74.07
2018-07-28T06:12:40.324Z,74.66
2018-07-28T06:13:50.392Z,74.69
2018-07-28T06:15:00.478Z,74.79
2018-07-28T06:16:10.305Z,74.69
2018-07-28T06:17:20.392Z,75.34
2018-07-28T06:18:30.464Z,75.53
2018-07-28T06:19:40.278Z,75.73
2018-07-28T06:20:50.362Z,76.28
2018-07-28T06:22:00.620Z,76.37
2018-07-28T06:23:10.651Z,76.37
2018-07-28T06:24:20.758Z,75.59
2018-07-28T06:25:30.574Z,75.34
2018-07-28T06:26:40.650Z,75.67
2018-07-28T06:27:50.800Z,75.27
2018-07-28T06:29:00.915Z,75.08
2018-07-28T06:30:10.992Z,75.7
2018-07-28T06:31:20.865Z,75.37
2018-07-28T06:32:31.007Z,75.47
2018-07-28T06:33:41.077Z,75.86
2018-07-28T06:34:51.153Z,75.6
2018-07-28T06:36:00.983Z,75.27
2018-07-28T06:37:11.084Z,75.41
2018-07-28T06:38:21.160Z,75.8
2018-07-28T06:39:31.318Z,75.76
2018-07-28T06:40:40.763Z,76.64
2018-07-28T06:41:50.835Z,76.25
2018-07-28T06:43:00.944Z,76.87
2018-07-28T06:44:11.039Z,76.45
2018-07-28T06:45:21.129Z,76.64
2018-07-28T06:46:30.416Z,75.96
2018-07-28T06:47:40.489Z,75.9
2018-07-28T06:48:50.593Z,75.51
2018-07-28T06:50:00.662Z,75.21
2018-07-28T06:51:10.828Z,75.7
2018-07-28T06:52:20.905Z,75.74
2018-07-28T06:53:30.985Z,75.7
2018-07-28T06:54:41.157Z,75.9
2018-07-28T06:55:50.964Z,75.8
2018-07-28T06:57:00.786Z,75.9
2018-07-28T06:58:10.864Z,75.51
2018-07-28T06:59:20.961Z,75.8
2018-07-28T07:00:30.515Z,75.84
2018-07-28T07:01:40.599Z,75.7
2018-07-28T07:02:50.679Z,76.68
2018-07-28T07:04:00.490Z,76.48
2018-07-28T07:05:10.304Z,76.68
2018-07-28T07:06:20.373Z,77.07
2018-07-28T07:07:30.466Z,77.07
2018-07-28T07:08:40.297Z,76.74
2018-07-28T07:09:50.376Z,77.13
2018-07-28T07:11:00.458Z,77.13
2018-07-28T07:12:10.550Z,77.13
2018-07-28T07:13:20.378Z,77.33
2018-07-28T07:14:30.252Z,77.33
2018-07-28T07:15:40.322Z,77.52
2018-07-28T07:16:50.407Z,77.23
2018-07-28T07:18:00.496Z,77.23
2018-07-28T07:19:10.575Z,77.19
2018-07-28T07:20:20.668Z,77.29
2018-07-28T07:21:30.753Z,77.78
2018-07-28T07:22:40.862Z,77.91
2018-07-28T07:23:50.934Z,77.33
2018-07-28T07:25:00.748Z,77.62
2018-07-28T07:26:10.861Z,77.52
2018-07-28T07:27:20.682Z,77.81
2018-07-28T07:28:30.765Z,77.52
2018-07-28T07:29:40.850Z,77.52
2018-07-28T07:30:50.962Z,77.52
2018-07-28T07:32:01.048Z,77.36
2018-07-28T07:33:11.110Z,77.36
2018-07-28T07:34:20.927Z,77.26
2018-07-28T07:35:31.029Z,77.52
2018-07-28T07:36:41.108Z,77.36
2018-07-28T07:37:50.923Z,77.17
2018-07-28T07:39:01.046Z,77.56
2018-07-28T07:40:11.150Z,77.36
2018-07-28T07:41:20.955Z,77.56
2018-07-28T07:42:31.035Z,77.36
2018-07-28T07:43:41.167Z,77.4
2018-07-28T07:44:51.299Z,77.36
2018-07-28T07:46:01.145Z,77.2
2018-07-28T07:47:11.380Z,77.01
2018-07-28T07:48:21.974Z,77.11
2018-07-28T07:49:31.786Z,77.11
2018-07-28T07:50:41.578Z,77.11
2018-07-28T07:51:51.677Z,77.01
2018-07-28T07:53:01.766Z,77.15
2018-07-28T07:54:11.864Z,77.05
2018-07-28T07:55:21.972Z,77.25
2018-07-28T07:56:31.796Z,77.25
2018-07-28T07:57:41.884Z,77.54
2018-07-28T07:58:51.944Z,77.64
2018-07-28T08:00:02.052Z,77.34
2018-07-28T08:01:12.187Z,77.25
2018-07-28T08:02:22.261Z,77.64
2018-07-28T08:03:32.139Z,77.64
2018-07-28T08:04:42.008Z,77.64
2018-07-28T08:05:52.347Z,77.34
2018-07-28T08:07:02.486Z,77.64
2018-07-28T08:08:12.599Z,77.54
2018-07-28T08:09:22.671Z,77.64
2018-07-28T08:10:32.756Z,77.05
2018-07-28T08:11:42.567Z,77.15
2018-07-28T08:12:52.444Z,77.44
2018-07-28T08:14:02.278Z,77.34
2018-07-28T08:15:12.385Z,77.34
2018-07-28T08:16:22.479Z,77.25
2018-07-28T08:17:32.306Z,77.44
2018-07-28T08:18:42.136Z,77.44
2018-07-28T08:19:51.946Z,77.34
2018-07-28T08:21:02.203Z,77.64
2018-07-28T08:22:12.518Z,77.58
2018-07-28T08:23:22.586Z,76.89
2018-07-28T08:24:32.692Z,77.09
2018-07-28T08:25:42.790Z,77.19
2018-07-28T08:26:52.779Z,77.28
2018-07-28T08:28:03.151Z,77.19
2018-07-28T08:29:13.238Z,77.42
2018-07-28T08:30:23.102Z,77.19
2018-07-28T08:31:33.222Z,76.93
2018-07-28T08:32:43.312Z,77.12
2018-07-28T08:33:53.389Z,77.12
2018-07-28T08:35:03.479Z,77.16
2018-07-28T08:36:13.553Z,76.97
2018-07-28T08:37:23.628Z,76.97
2018-07-28T08:38:33.729Z,77.36
2018-07-28T08:39:43.823Z,77.45
2018-07-28T08:40:53.769Z,77.45
2018-07-28T08:42:03.927Z,77.26
2018-07-28T08:43:14.025Z,77.16
2018-07-28T08:44:24.123Z,77.26
2018-07-28T08:45:34.201Z,77.55
2018-07-28T08:46:44.017Z,77.49
2018-07-28T08:47:53.863Z,77.49
2018-07-28T08:49:04.326Z,77.49
2018-07-28T08:50:15.045Z,77.49
2018-07-28T08:51:25.116Z,77
2018-07-28T08:52:35.205Z,76.9
2018-07-28T08:53:45.032Z,77.1
2018-07-28T08:54:55.112Z,77.1
2018-07-28T08:56:05.195Z,77.39
2018-07-28T08:57:15.290Z,77.49
2018-07-28T08:58:25.393Z,77.29
2018-07-28T08:59:35.246Z,77.39
2018-07-28T09:00:45.121Z,77.2
2018-07-28T09:01:55.207Z,77.2
2018-07-28T09:03:05.290Z,77.49
2018-07-28T09:04:15.384Z,77.29
2018-07-28T09:05:25.467Z,77.59
2018-07-28T09:06:35.556Z,77.29
2018-07-28T09:07:45.381Z,77.39
2018-07-28T09:08:55.488Z,77.53
2018-07-28T09:10:05.575Z,77.39
2018-07-28T09:11:15.673Z,77.2
2018-07-28T09:12:25.833Z,77.29
2018-07-28T09:13:36.366Z,77.59
2018-07-28T09:14:46.181Z,77.43
2018-07-28T09:15:56.279Z,77.53
2018-07-28T09:17:06.357Z,77.04
2018-07-28T09:18:16.456Z,77.04
2018-07-28T09:19:26.277Z,77.04
2018-07-28T09:20:36.350Z,77.23
2018-07-28T09:21:46.478Z,77.17
2018-07-28T09:22:56.302Z,77.47
2018-07-28T09:24:06.467Z,77.17
2018-07-28T09:25:16.562Z,77.17
2018-07-28T09:26:26.702Z,77.27
2018-07-28T09:27:36.812Z,77.67
2018-07-28T09:28:46.651Z,77.37
2018-07-28T09:29:56.769Z,77.08
2018-07-28T09:31:06.868Z,77.17
2018-07-28T09:32:16.993Z,77.17
2018-07-28T09:33:26.822Z,77.27
2018-07-28T09:34:36.647Z,76.98
2018-07-28T09:35:46.790Z,77.08
2018-07-28T09:36:57.012Z,77.37
2018-07-28T09:38:07.464Z,77.22
2018-07-28T09:39:17.553Z,77.41
2018-07-28T09:40:27.646Z,77.41
2018-07-28T09:41:37.744Z,77.22
2018-07-28T09:42:47.829Z,77.12
2018-07-28T09:43:57.404Z,77.22
2018-07-28T09:45:07.378Z,77.22
2018-07-28T09:46:17.330Z,77.41
2018-07-28T09:47:28.635Z,77.12
2018-07-28T09:48:40.915Z,77.61
2018-07-28T09:49:51.000Z,77.61
2018-07-28T09:51:01.082Z,77.01
2018-07-28T09:52:11.486Z,77.31
2018-07-28T09:53:21.639Z,77.25
2018-07-28T09:54:31.771Z,77.35
2018-07-28T09:55:41.887Z,77.15
2018-07-28T09:56:52.050Z,77.15
2018-07-28T09:58:02.154Z,77.06
2018-07-28T09:59:13.301Z,77.19
2018-07-28T10:00:23.675Z,76.7
2018-07-28T10:01:34.184Z,77.19
2018-07-28T10:02:45.108Z,77.45
2018-07-28T10:03:56.116Z,77.09
2018-07-28T10:05:06.536Z,76.9
2018-07-28T10:06:16.651Z,77.09
2018-07-28T10:07:26.755Z,77.13
2018-07-28T10:08:36.886Z,76.93
2018-07-28T10:09:47.021Z,76.84
2018-07-28T10:10:56.857Z,77.33
2018-07-28T10:12:06.967Z,77.48
2018-07-28T10:13:17.070Z,77.68
2018-07-28T10:14:26.914Z,77.33
2018-07-28T10:15:37.011Z,77.23
2018-07-28T10:16:47.157Z,77.13
2018-07-28T10:17:57.257Z,78.02
2018-07-28T10:19:07.099Z,78.17
2018-07-28T10:20:17.201Z,77.97
2018-07-28T10:21:27.036Z,78.17
2018-07-28T10:22:37.241Z,77.78
2018-07-28T10:23:47.395Z,77.87
2018-07-28T10:24:57.228Z,78.17
2018-07-28T10:26:07.310Z,78.27
2018-07-28T10:27:17.397Z,77.97
2018-07-28T10:28:27.513Z,77.68
2018-07-28T10:29:37.401Z,77.23
2018-07-28T10:30:47.484Z,77.33
2018-07-28T10:31:57.574Z,77.26
2018-07-28T10:33:07.447Z,76.87
2018-07-28T10:34:17.629Z,77.11
2018-07-28T10:35:27.716Z,77.2
2018-07-28T10:36:37.865Z,76.91
2018-07-28T10:37:48.417Z,77.11
2018-07-28T10:38:58.516Z,76.91
2018-07-28T10:40:08.698Z,76.95
2018-07-28T10:41:18.791Z,76.85
2018-07-28T10:42:29.154Z,77.04
2018-07-28T10:43:39.238Z,76.95
2018-07-28T10:44:49.316Z,77.24
2018-07-28T10:45:59.420Z,77.2
2018-07-28T10:47:09.256Z,77.6
2018-07-28T10:48:19.322Z,77.46
2018-07-28T10:49:29.414Z,78.15
2018-07-28T10:50:39.228Z,78.02
2018-07-28T10:51:49.415Z,77.46
2018-07-28T10:52:59.866Z,77.36
2018-07-28T10:54:09.982Z,77.11
2018-07-28T10:55:20.048Z,77.2
2018-07-28T10:56:29.988Z,77.04
2018-07-28T10:57:40.111Z,76.35
2018-07-28T10:58:50.197Z,76.39
2018-07-28T11:00:00.100Z,76.2
2018-07-28T11:01:10.490Z,76.1
2018-07-28T11:02:20.574Z,76.29
2018-07-28T11:03:30.669Z,76.39
2018-07-28T11:04:40.532Z,76.23
2018-07-28T11:05:50.362Z,76.39
2018-07-28T11:07:00.475Z,76.43
2018-07-28T11:08:10.296Z,76.14
2018-07-28T11:09:20.452Z,76.23
2018-07-28T11:10:30.274Z,76.57
2018-07-28T11:11:40.114Z,76.57
2018-07-28T11:12:50.209Z,76.47
2018-07-28T11:14:00.045Z,76.37
2018-07-28T11:15:09.866Z,76.37
2018-07-28T11:16:19.972Z,76.47
2018-07-28T11:17:30.079Z,76.57
2018-07-28T11:18:40.202Z,76.61
2018-07-28T11:19:50.693Z,77.26
2018-07-28T11:21:00.777Z,77.26
2018-07-28T11:22:10.879Z,76.11
2018-07-28T11:23:21.113Z,76.51
2018-07-28T11:24:31.194Z,76.31
2018-07-28T11:25:41.026Z,76.21
2018-07-28T11:26:51.204Z,76.41
2018-07-28T11:28:01.302Z,76.31
2018-07-28T11:29:11.124Z,76.61
2018-07-28T11:30:20.429Z,76.31
2018-07-28T11:31:30.271Z,76.21
2018-07-28T11:32:40.577Z,76.21
2018-07-28T11:33:50.664Z,76.51
2018-07-28T11:35:00.752Z,76.41
2018-07-28T11:36:10.591Z,76.51
2018-07-28T11:37:20.714Z,76.61
2018-07-28T11:38:30.865Z,76.54
2018-07-28T11:39:40.977Z,76.54
2018-07-28T11:40:51.070Z,76.64
2018-07-28T11:42:00.895Z,76.64
2018-07-28T11:43:10.732Z,76.64
2018-07-28T11:44:20.871Z,76.34
2018-07-28T11:45:30.694Z,76.45
2018-07-28T11:46:40.767Z,76.45
2018-07-28T11:47:50.852Z,76.48
2018-07-28T11:49:00.982Z,76.78
2018-07-28T11:50:11.193Z,76.39
2018-07-28T11:51:20.902Z,76.78
2018-07-28T11:52:30.926Z,76.58
2018-07-28T11:53:41.016Z,76.39
2018-07-28T11:54:51.117Z,76.68
2018-07-28T11:56:00.976Z,76.22
2018-07-28T11:57:11.085Z,76.28
2018-07-28T11:58:21.357Z,76.48
2018-07-28T11:59:32.086Z,76.39
2018-07-28T12:00:41.934Z,76.87
2018-07-28T12:01:51.829Z,76.68
2018-07-28T12:03:01.976Z,77.23
2018-07-28T12:04:12.078Z,77.43
2018-07-28T12:05:21.916Z,76.64
2018-07-28T12:06:32.258Z,76.64
2018-07-28T12:07:42.400Z,76.39
2018-07-28T12:08:52.756Z,76.78
2018-07-28T12:10:02.825Z,76.48
2018-07-28T12:11:12.921Z,76.62
2018-07-28T12:12:23.105Z,76.58
2018-07-28T12:13:33.015Z,76.39
2018-07-28T12:14:42.582Z,76.58
2018-07-28T12:15:52.693Z,76.48
2018-07-28T12:17:02.519Z,77.27
2018-07-28T12:18:12.681Z,76.78
2018-07-28T12:19:23.195Z,76.58
2018-07-28T12:20:33.536Z,76.58
2018-07-28T12:21:43.620Z,76.58
2018-07-28T12:22:53.722Z,76.58
2018-07-28T12:24:04.005Z,76.48
2018-07-28T12:25:14.313Z,76.28
2018-07-28T12:26:24.416Z,76.39
2018-07-28T12:27:34.514Z,76.58
2018-07-28T12:28:44.620Z,76.48
2018-07-28T12:29:54.193Z,76.42
2018-07-28T12:31:04.274Z,76.72
2018-07-28T12:32:14.369Z,76.32
2018-07-28T12:33:24.525Z,76.75
2018-07-28T12:34:34.473Z,76.26
2018-07-28T12:35:44.778Z,76.46
2018-07-28T12:36:54.869Z,76.35
2018-07-28T12:38:04.705Z,76.56
2018-07-28T12:39:14.814Z,76.59
2018-07-28T12:40:24.657Z,76.46
2018-07-28T12:41:34.497Z,76.35
2018-07-28T12:42:44.582Z,76.59
2018-07-28T12:43:54.678Z,76.29
2018-07-28T12:45:04.831Z,76.1
2018-07-28T12:46:14.924Z,76.23
2018-07-28T12:47:24.755Z,76
2018-07-28T12:48:34.845Z,76.14
2018-07-28T12:49:44.952Z,75.45
2018-07-28T12:50:55.084Z,75.74
2018-07-28T12:52:05.195Z,75.94
2018-07-28T12:53:15.272Z,75.98
2018-07-28T12:54:25.365Z,75.68
2018-07-28T12:55:35.311Z,75.84
2018-07-28T12:56:45.696Z,75.84
2018-07-28T12:57:55.789Z,75.84
2018-07-28T12:59:05.904Z,75.35
2018-07-28T13:00:15.994Z,75.45
2018-07-28T13:01:26.097Z,75.68
2018-07-28T13:02:36.230Z,76.82
2018-07-28T13:03:46.367Z,77.28
2018-07-28T13:04:56.584Z,77.64
2018-07-28T13:06:06.691Z,77.8
2018-07-28T13:07:16.796Z,78.55
2018-07-28T13:08:26.939Z,78.31
2018-07-28T13:09:36.781Z,78.28
2018-07-28T13:10:46.967Z,77.27
2018-07-28T13:11:57.061Z,76.62
2018-07-28T13:13:07.180Z,76.56
2018-07-28T13:14:17.295Z,76
2018-07-28T13:15:27.403Z,75.84
2018-07-28T13:16:37.491Z,75.28
2018-07-28T13:17:47.682Z,75.18
2018-07-28T13:18:58.038Z,75.32
2018-07-28T13:20:07.954Z,75.32
2018-07-28T13:21:18.063Z,75.71
2018-07-28T13:22:28.158Z,75.85
2018-07-28T13:23:38.307Z,75.75
2018-07-28T13:24:48.684Z,75.45
2018-07-28T13:25:58.780Z,75.85
2018-07-28T13:27:08.611Z,76.9
2018-07-28T13:28:18.729Z,76.76
2018-07-28T13:29:28.850Z,77.32
2018-07-28T13:30:38.970Z,76.73
2018-07-28T13:31:48.868Z,76.27
2018-07-28T13:32:58.980Z,76.67
2018-07-28T13:34:09.095Z,76.53
2018-07-28T13:35:19.309Z,76.76
2018-07-28T13:36:29.503Z,76.63
2018-07-28T13:37:39.389Z,76.73
2018-07-28T13:38:49.514Z,76.43
2018-07-28T13:39:59.351Z,76.14
2018-07-28T13:41:09.478Z,76.37
2018-07-28T13:42:19.559Z,75.48
2018-07-28T13:43:29.680Z,75.58
2018-07-28T13:44:39.802Z,75.42
2018-07-28T13:45:49.654Z,75.52
2018-07-28T13:46:59.783Z,75.85
2018-07-28T13:48:09.892Z,75.52
2018-07-28T13:49:20.015Z,75.06
2018-07-28T13:50:30.106Z,74.96
2018-07-28T13:51:39.698Z,75.39
2018-07-28T13:52:49.797Z,74.8
2018-07-28T13:53:59.900Z,74.9
2018-07-28T13:55:10.008Z,74.99
2018-07-28T13:56:20.112Z,74.99
2018-07-28T13:57:30.217Z,75.1
2018-07-28T13:58:40.341Z,74.74
2018-07-28T13:59:50.461Z,74.84
2018-07-28T14:01:00.303Z,74.74
2018-07-28T14:02:10.412Z,74.44
2018-07-28T14:03:19.981Z,74.74
2018-07-28T14:04:30.078Z,74.84
2018-07-28T14:05:39.929Z,74.44
2018-07-28T14:06:50.092Z,74.84
2018-07-28T14:08:00.206Z,74.38
2018-07-28T14:09:10.309Z,73.78
2018-07-28T14:10:20.396Z,74.21
2018-07-28T14:11:30.230Z,73.72
2018-07-28T14:12:40.391Z,74.05
2018-07-28T14:13:50.494Z,73.75
2018-07-28T14:15:00.781Z,73.59
2018-07-28T14:16:11.177Z,73.69
2018-07-28T14:17:21.306Z,73.72
2018-07-28T14:18:31.875Z,73.72
2018-07-28T14:19:42.247Z,73.72
2018-07-28T14:20:52.077Z,73.27
2018-07-28T14:22:02.174Z,72.86
2018-07-28T14:23:12.268Z,73.4
2018-07-28T14:24:22.400Z,73.1
2018-07-28T14:25:32.498Z,73.33
2018-07-28T14:26:42.599Z,73.1
2018-07-28T14:27:52.468Z,73.8
2018-07-28T14:29:02.664Z,73.56
2018-07-28T14:30:12.228Z,73.72
2018-07-28T14:31:22.420Z,74.32
2018-07-28T14:32:32.405Z,74.38
2018-07-28T14:33:42.241Z,74.55
2018-07-28T14:34:52.067Z,74.84
2018-07-28T14:36:02.156Z,74.65
2018-07-28T14:37:12.262Z,74.8
2018-07-28T14:38:22.333Z,74.91
2018-07-28T14:39:32.199Z,75.37
2018-07-28T14:40:42.301Z,75.73
2018-07-28T14:41:52.389Z,75.63
2018-07-28T14:43:02.204Z,75.49
2018-07-28T14:44:12.305Z,75.29
2018-07-28T14:45:22.143Z,75.85
2018-07-28T14:46:32.255Z,75.75
2018-07-28T14:47:42.344Z,75.42
2018-07-28T14:48:52.160Z,76.31
2018-07-28T14:50:01.986Z,76.31
2018-07-28T14:51:12.071Z,76.31
2018-07-28T14:52:22.153Z,76.47
2018-07-28T14:53:31.980Z,76.97
2018-07-28T14:54:42.074Z,76.76
2018-07-28T14:55:51.894Z,76.53
2018-07-28T14:57:01.980Z,76.43
2018-07-28T14:58:11.853Z,76.4
2018-07-28T14:59:21.684Z,76.79
2018-07-28T15:00:31.563Z,77.19
2018-07-28T15:01:41.665Z,77.25
2018-07-28T15:02:51.531Z,77.15
2018-07-28T15:04:01.373Z,77.15
2018-07-28T15:05:11.483Z,77.34
2018-07-28T15:06:21.611Z,77.44
2018-07-28T15:07:31.869Z,77.44
2018-07-28T15:08:41.956Z,77.44
2018-07-28T15:09:52.121Z,77.34
2018-07-28T15:11:02.200Z,77.44
2018-07-28T15:12:12.289Z,77.25
2018-07-28T15:13:22.160Z,77.21
2018-07-28T15:14:32.279Z,77.4
2018-07-28T15:15:42.370Z,77.31
2018-07-28T15:16:52.466Z,77.31
2018-07-28T15:18:02.572Z,77.56
2018-07-28T15:19:12.647Z,77.66
2018-07-28T15:20:22.749Z,77.76
2018-07-28T15:21:32.699Z,77.37
2018-07-28T15:22:43.182Z,77.66
2018-07-28T15:23:53.290Z,77.86
2018-07-28T15:25:03.388Z,77.96
2018-07-28T15:26:13.478Z,77.92
2018-07-28T15:27:23.611Z,78.12
2018-07-28T15:28:33.480Z,77.62
2018-07-28T15:29:43.749Z,77.92
2018-07-28T15:30:53.589Z,78.02
2018-07-28T15:32:03.679Z,77.92
2018-07-28T15:33:13.865Z,77.83
2018-07-28T15:34:23.966Z,77.49
2018-07-28T15:35:34.054Z,77.89